createdAt,value
2023-05-03T00:01:00.133Z,2.3
2023-05-03T00:11:02.641Z,2.5
2023-05-03T00:21:04.709Z,2.2
2023-05-03T00:31:06.478Z,1.8
2023-05-03T00:41:08.227Z,1.9
2023-05-03T00:51:10.013Z,1.9
2023-05-03T01:01:11.838Z,1.8
2023-05-03T01:11:13.572Z,1.7
2023-05-03T01:21:16.098Z,1.6
2023-05-03T01:31:18.000Z,1.5
2023-05-03T01:41:19.847Z,1.4
2023-05-03T01:51:21.937Z,1.3
2023-05-03T02:01:23.639Z,1.3
2023-05-03T02:11:25.714Z,1
2023-05-03T02:21:27.492Z,1
2023-05-03T02:31:29.416Z,1.1
2023-05-03T02:41:31.151Z,1.2
2023-05-03T03:01:36.192Z,0.9
2023-05-03T03:11:37.850Z,0.9
2023-05-03T03:21:40.114Z,0.9
2023-05-03T03:31:42.538Z,0.7
2023-05-03T03:41:45.034Z,0.7
2023-05-03T03:51:46.862Z,0.8
2023-05-03T04:11:50.472Z,0.7
2023-05-03T04:21:52.340Z,0.8
2023-05-03T04:31:54.662Z,0.9
2023-05-03T04:41:57.286Z,1.4
2023-05-03T04:51:59.563Z,1.8
2023-05-03T05:02:01.620Z,2.4
2023-05-03T05:12:03.670Z,3.4
2023-05-03T05:22:06.153Z,3.7
2023-05-03T05:32:08.680Z,4.2
2023-05-03T05:42:10.965Z,4.8
2023-05-03T06:02:15.297Z,5.8
2023-05-03T06:12:16.943Z,6.3
2023-05-03T06:22:19.439Z,6.8
2023-05-03T06:32:22.092Z,7
2023-05-03T06:42:24.104Z,7.6
2023-05-03T06:52:26.593Z,7.5
2023-05-03T07:02:29.226Z,8.3
2023-05-03T07:12:30.840Z,8.7
2023-05-03T07:22:32.567Z,8.9
2023-05-03T07:32:34.728Z,9.3
2023-05-03T07:42:36.427Z,8.9
2023-05-03T07:52:38.332Z,9.1
2023-05-03T08:12:42.362Z,10.3
2023-05-03T08:22:44.388Z,10.5
2023-05-03T08:42:49.108Z,11.4
2023-05-03T08:52:50.957Z,10.8
2023-05-03T09:02:52.747Z,9.2
2023-05-03T09:12:54.514Z,10.1
2023-05-03T09:22:57.146Z,10.7
2023-05-03T09:32:59.749Z,10.6
2023-05-03T09:43:03.156Z,11
2023-05-03T09:53:03.690Z,12.2
2023-05-03T10:03:06.290Z,12.9
2023-05-03T10:13:08.624Z,12.6
2023-05-03T10:23:09.934Z,12
2023-05-03T10:33:11.662Z,11.3
2023-05-03T10:43:13.565Z,11.8
2023-05-03T10:53:16.049Z,11.4
2023-05-03T11:03:17.859Z,13
2023-05-03T11:13:20.377Z,13
2023-05-03T11:33:24.545Z,13.4
2023-05-03T11:43:27.025Z,13.5
2023-05-03T11:53:29.119Z,12.6
2023-05-03T12:03:32.880Z,13.5
2023-05-03T12:13:35.039Z,14
2023-05-03T12:23:36.012Z,12.7
2023-05-03T12:33:38.707Z,13.4
2023-05-03T12:43:43.338Z,13.5
2023-05-03T12:53:45.829Z,14.5
2023-05-03T13:03:51.452Z,13.7
2023-05-03T13:13:46.555Z,15
2023-05-03T13:23:48.985Z,14.3
2023-05-03T13:33:50.827Z,14.3
2023-05-03T13:43:53.030Z,15
2023-05-03T13:53:55.634Z,14.5
2023-05-03T14:03:58.056Z,15.1
2023-05-03T14:14:00.337Z,15.2
2023-05-03T14:24:01.800Z,14.9
2023-05-03T14:34:04.359Z,15.5
2023-05-03T14:44:06.022Z,14.7
2023-05-03T14:54:08.126Z,15.2
2023-05-03T15:04:10.461Z,14.9
2023-05-03T15:14:12.349Z,14.9
2023-05-03T15:24:14.304Z,14.8
2023-05-03T15:34:16.090Z,15.3
2023-05-03T15:44:17.920Z,15.5
2023-05-03T15:54:20.241Z,15.3
2023-05-03T16:04:22.438Z,14.8
2023-05-03T16:14:24.554Z,15
2023-05-03T16:24:26.543Z,14.8
2023-05-03T16:34:28.732Z,15.3
2023-05-03T16:44:31.101Z,14.9
2023-05-03T16:54:33.294Z,14.6
2023-05-03T17:04:35.202Z,14.8
2023-05-03T17:14:37.664Z,14.6
2023-05-03T17:24:39.926Z,14.6
2023-05-03T17:34:41.717Z,14.4
2023-05-03T17:44:43.637Z,14.2
2023-05-03T17:54:45.495Z,14
2023-05-03T18:04:47.330Z,14
2023-05-03T18:24:51.552Z,13.4
2023-05-03T18:34:54.119Z,12.9
2023-05-03T18:44:55.949Z,12.6
2023-05-03T18:54:58.199Z,12.3
2023-05-03T19:15:02.519Z,11.9
2023-05-03T19:25:05.012Z,11.3
2023-05-03T19:35:06.296Z,11.1
2023-05-03T19:45:08.197Z,11
2023-05-03T19:55:10.382Z,11
2023-05-03T20:05:12.263Z,10.8
2023-05-03T20:15:14.873Z,10.4
2023-05-03T20:25:16.508Z,10.1
2023-05-03T20:35:18.367Z,9.8
2023-05-03T20:45:20.672Z,9.7
2023-05-03T20:55:23.147Z,9.3
2023-05-03T21:05:25.307Z,9.4
2023-05-03T21:15:27.803Z,9.2
2023-05-03T21:15:49.675Z,9.2
2023-05-03T21:25:36.618Z,8.9
2023-05-03T21:35:38.389Z,8.7
2023-05-03T21:45:40.139Z,8.5
2023-05-03T21:55:42.475Z,8.3
2023-05-03T22:05:44.645Z,8.3
2023-05-03T22:15:47.223Z,8.2
2023-05-03T22:25:49.413Z,8.1
2023-05-03T22:35:51.752Z,7.9
2023-05-03T22:45:54.295Z,7.8
2023-05-03T22:55:56.269Z,7.6
2023-05-03T23:05:58.370Z,7.6
2023-05-03T23:16:00.392Z,7.3
2023-05-03T23:26:02.530Z,7
2023-05-03T23:36:05.065Z,7.1
2023-05-03T23:46:07.441Z,7.2
2023-05-03T23:56:09.373Z,7
